createdAt,value
2019-05-02T00:00:49.075Z,5.90
2019-05-02T00:03:20.630Z,6.00
2019-05-02T00:05:52.240Z,6.00
2019-05-02T00:08:29.350Z,6.00
2019-05-02T00:10:58.378Z,6.00
2019-05-02T00:13:31.468Z,6.00
2019-05-02T00:16:02.861Z,6.00
2019-05-02T00:18:37.179Z,6.00
2019-05-02T00:21:07.556Z,6.00
2019-05-02T00:23:42.252Z,6.10
2019-05-02T00:26:14.969Z,6.10
2019-05-02T00:28:47.920Z,6.00
2019-05-02T00:31:24.145Z,6.10
2019-05-02T00:33:55.825Z,6.00
2019-05-02T00:36:26.772Z,6.10
2019-05-02T00:38:57.493Z,6.10
2019-05-02T00:41:28.168Z,6.00
2019-05-02T00:43:57.526Z,5.90
2019-05-02T00:46:30.186Z,6.00
2019-05-02T00:49:04.071Z,6.00
2019-05-02T00:51:36.600Z,6.00
2019-05-02T00:54:08.792Z,6.00
2019-05-02T00:56:44.068Z,6.00
2019-05-02T00:59:13.020Z,6.10
2019-05-02T01:02:05.428Z,6.10
2019-05-02T01:04:34.861Z,6.10
2019-05-02T01:07:08.374Z,6.00
2019-05-02T01:09:42.146Z,6.00
2019-05-02T01:12:25.185Z,6.00
2019-05-02T01:14:49.586Z,5.90
2019-05-02T01:17:32.301Z,5.80
2019-05-02T01:20:02.874Z,5.80
2019-05-02T01:22:37.362Z,5.80
2019-05-02T01:25:15.784Z,5.80
2019-05-02T01:28:00.961Z,5.80
2019-05-02T01:31:05.070Z,5.90
2019-05-02T01:33:43.997Z,5.90
2019-05-02T01:36:18.929Z,5.90
2019-05-02T01:38:50.304Z,5.80
2019-05-02T01:41:24.018Z,5.70
2019-05-02T01:43:54.867Z,5.70
2019-05-02T01:46:26.812Z,5.70
2019-05-02T01:48:57.049Z,5.70
2019-05-02T01:51:27.568Z,5.70
2019-05-02T01:53:59.959Z,5.70
2019-05-02T01:56:35.149Z,5.80
2019-05-02T01:59:08.345Z,5.70
2019-05-02T02:01:38.928Z,5.60
2019-05-02T02:04:11.122Z,5.60
2019-05-02T02:06:45.212Z,5.70
2019-05-02T02:09:17.024Z,5.60
2019-05-02T02:11:49.212Z,5.60
2019-05-02T02:14:19.020Z,5.70
2019-05-02T02:16:48.142Z,5.60
2019-05-02T02:19:26.757Z,5.50
2019-05-02T02:22:22.836Z,5.50
2019-05-02T02:25:11.593Z,5.50
2019-05-02T02:27:43.860Z,5.60
2019-05-02T02:30:17.791Z,5.70
2019-05-02T02:32:50.344Z,5.70
2019-05-02T02:35:24.524Z,5.70
2019-05-02T02:37:55.863Z,5.70
2019-05-02T02:40:33.647Z,5.60
2019-05-02T02:43:12.797Z,5.60
2019-05-02T02:45:51.916Z,5.40
2019-05-02T02:48:24.365Z,5.30
2019-05-02T02:50:58.666Z,5.30
2019-05-02T02:53:33.465Z,5.40
2019-05-02T02:56:04.529Z,5.30
2019-05-02T02:58:43.987Z,5.30
2019-05-02T03:01:09.354Z,5.20
2019-05-02T03:03:41.980Z,5.20
2019-05-02T03:06:15.194Z,5.30
2019-05-02T03:08:49.229Z,5.30
2019-05-02T03:11:25.549Z,5.30
2019-05-02T03:14:21.493Z,5.30
2019-05-02T03:16:55.450Z,5.20
2019-05-02T03:19:29.848Z,5.30
2019-05-02T03:22:04.282Z,5.20
2019-05-02T03:24:36.751Z,5.20
2019-05-02T03:27:11.378Z,5.30
2019-05-02T03:29:45.626Z,5.20
2019-05-02T03:32:30.836Z,5.40
2019-05-02T03:34:51.932Z,5.40
2019-05-02T03:37:18.814Z,5.40
2019-05-02T03:39:57.530Z,5.30
2019-05-02T03:42:25.582Z,5.30
2019-05-02T03:45:04.134Z,5.30
2019-05-02T03:47:36.791Z,5.40
2019-05-02T03:50:08.912Z,5.40
2019-05-02T03:52:43.436Z,5.40
2019-05-02T03:55:12.241Z,5.30
2019-05-02T03:57:47.441Z,5.40
2019-05-02T04:00:20.803Z,5.40
2019-05-02T04:03:00.837Z,5.40
2019-05-02T04:05:26.805Z,5.30
2019-05-02T04:07:59.502Z,5.30
2019-05-02T04:10:52.513Z,5.20
2019-05-02T04:13:18.398Z,5.40
2019-05-02T04:15:51.611Z,5.30
2019-05-02T04:18:22.945Z,5.30
2019-05-02T04:20:55.557Z,5.10
2019-05-02T04:23:29.874Z,5.20
2019-05-02T04:26:06.705Z,5.20
2019-05-02T04:28:36.710Z,5.10
2019-05-02T04:31:09.110Z,5.10
2019-05-02T04:33:42.805Z,5.00
2019-05-02T04:36:17.868Z,4.80
2019-05-02T04:38:48.726Z,4.90
2019-05-02T04:41:28.513Z,4.70
2019-05-02T04:43:57.600Z,4.60
2019-05-02T04:46:31.092Z,4.60
2019-05-02T04:49:01.624Z,4.60
2019-05-02T04:51:32.885Z,4.50
2019-05-02T04:54:09.183Z,4.40
2019-05-02T04:56:49.620Z,4.60
2019-05-02T04:59:17.896Z,4.30
2019-05-02T05:01:50.844Z,4.30
2019-05-02T05:04:17.804Z,4.40
2019-05-02T05:06:55.876Z,4.40
2019-05-02T05:09:27.757Z,4.30
2019-05-02T05:12:02.498Z,4.20
2019-05-02T05:14:39.232Z,4.20
2019-05-02T05:17:09.200Z,4.10
2019-05-02T05:19:40.272Z,4.10
2019-05-02T05:22:12.079Z,4.10
2019-05-02T05:24:47.721Z,4.00
2019-05-02T05:27:22.855Z,4.00
2019-05-02T05:30:02.265Z,4.00
2019-05-02T05:32:29.618Z,4.10
2019-05-02T05:35:09.017Z,4.00
2019-05-02T05:37:38.269Z,4.20
2019-05-02T05:40:11.366Z,3.90
2019-05-02T05:42:44.653Z,3.80
2019-05-02T05:45:18.953Z,3.80
2019-05-02T05:47:52.403Z,3.50
2019-05-02T05:50:24.641Z,3.60
2019-05-02T05:52:59.532Z,3.50
2019-05-02T05:55:31.697Z,3.40
2019-05-02T05:58:12.133Z,3.40
2019-05-02T06:00:38.037Z,3.50
2019-05-02T06:03:14.116Z,3.30
2019-05-02T06:05:44.167Z,3.40
2019-05-02T06:08:18.532Z,3.30
2019-05-02T06:10:48.868Z,3.30
2019-05-02T06:13:22.233Z,3.40
2019-05-02T06:16:01.944Z,3.40
2019-05-02T06:18:28.384Z,3.10
2019-05-02T06:20:58.529Z,3.10
2019-05-02T06:23:36.288Z,3.10
2019-05-02T06:26:07.980Z,3.20
2019-05-02T06:28:43.242Z,3.20
2019-05-02T06:31:17.102Z,3.10
2019-05-02T06:33:53.496Z,3.30
2019-05-02T06:36:26.145Z,3.10
2019-05-02T06:38:57.902Z,3.10
2019-05-02T06:41:31.281Z,3.10
2019-05-02T06:44:02.964Z,3.00
2019-05-02T06:46:34.185Z,3.10
2019-05-02T06:49:09.072Z,3.30
2019-05-02T06:51:43.275Z,3.30
2019-05-02T06:54:18.076Z,3.30
2019-05-02T06:56:47.954Z,3.40
2019-05-02T06:59:20.328Z,3.50
2019-05-02T07:01:52.417Z,3.30
2019-05-02T07:04:27.476Z,3.40
2019-05-02T07:07:00.655Z,3.50
2019-05-02T07:09:41.061Z,3.60
2019-05-02T07:12:09.872Z,3.00
2019-05-02T07:14:38.338Z,3.10
2019-05-02T07:17:37.805Z,3.30
2019-05-02T07:20:07.851Z,3.40
2019-05-02T07:22:40.852Z,3.10
2019-05-02T07:25:12.677Z,3.10
2019-05-02T07:27:43.879Z,3.30
2019-05-02T07:30:16.440Z,3.30
2019-05-02T07:32:45.931Z,3.30
2019-05-02T07:35:19.148Z,3.40
2019-05-02T07:37:51.310Z,3.10
2019-05-02T07:40:23.697Z,3.10
2019-05-02T07:42:55.865Z,3.30
2019-05-02T07:45:26.649Z,3.20
2019-05-02T07:48:01.537Z,3.20
2019-05-02T07:50:34.858Z,2.90
2019-05-02T07:53:09.620Z,2.80
2019-05-02T07:55:40.644Z,3.00
2019-05-02T07:58:11.739Z,2.90
2019-05-02T08:00:42.437Z,2.70
2019-05-02T08:03:17.578Z,2.70
2019-05-02T08:05:54.412Z,2.50
2019-05-02T08:08:29.792Z,2.30
2019-05-02T08:11:01.826Z,2.40
2019-05-02T08:13:34.044Z,2.40
2019-05-02T08:16:03.470Z,2.40
2019-05-02T08:18:33.861Z,2.10
2019-05-02T08:21:04.031Z,2.00
2019-05-02T08:23:35.755Z,2.30
2019-05-02T08:26:10.582Z,2.20
2019-05-02T08:28:51.904Z,2.30
2019-05-02T08:31:22.593Z,2.60
2019-05-02T08:33:54.829Z,2.60
2019-05-02T08:36:25.706Z,2.60
2019-05-02T08:38:58.969Z,2.70
2019-05-02T08:41:32.621Z,2.90
2019-05-02T08:44:04.969Z,2.80
2019-05-02T08:46:34.828Z,2.90
2019-05-02T08:49:06.011Z,3.00
2019-05-02T08:51:36.602Z,3.00
2019-05-02T08:54:11.762Z,3.00
2019-05-02T08:56:47.699Z,3.10
2019-05-02T08:59:19.707Z,3.20
2019-05-02T09:01:51.425Z,3.10
2019-05-02T09:04:24.172Z,3.10
2019-05-02T09:06:58.750Z,3.10
2019-05-02T09:09:34.018Z,3.10
2019-05-02T09:12:12.370Z,3.20
2019-05-02T09:14:39.689Z,3.00
2019-05-02T09:17:15.854Z,2.90
2019-05-02T09:19:43.669Z,3.00
2019-05-02T09:22:16.845Z,2.90
2019-05-02T09:24:47.014Z,2.70
2019-05-02T09:27:19.895Z,2.70
2019-05-02T09:29:55.149Z,2.60
2019-05-02T09:32:26.627Z,2.70
2019-05-02T09:35:04.246Z,2.60
2019-05-02T09:37:33.013Z,2.70
2019-05-02T09:40:12.512Z,2.70
2019-05-02T09:42:39.803Z,2.90
2019-05-02T09:45:16.132Z,2.90
2019-05-02T09:48:01.338Z,3.10
2019-05-02T09:50:31.462Z,3.10
2019-05-02T09:53:02.899Z,3.10
2019-05-02T09:55:33.468Z,3.20
2019-05-02T09:58:10.404Z,3.30
2019-05-02T10:00:58.224Z,3.40
2019-05-02T10:03:28.981Z,3.30
2019-05-02T10:06:03.180Z,3.20
2019-05-02T10:08:38.315Z,3.20
2019-05-02T10:11:11.725Z,3.20
2019-05-02T10:13:43.346Z,3.20
2019-05-02T10:16:17.952Z,3.20
2019-05-02T10:18:47.690Z,3.20
2019-05-02T10:21:24.145Z,3.30
2019-05-02T10:23:59.537Z,3.30
2019-05-02T10:26:27.666Z,3.40
2019-05-02T10:28:59.209Z,3.40
2019-05-02T10:31:35.799Z,3.20
2019-05-02T10:34:08.534Z,3.40
2019-05-02T10:36:39.071Z,3.40
2019-05-02T10:39:15.834Z,3.40
2019-05-02T10:41:49.529Z,3.30
2019-05-02T10:44:27.241Z,3.20
2019-05-02T10:46:59.529Z,3.00
2019-05-02T10:49:52.757Z,3.30
2019-05-02T10:52:29.556Z,3.20
2019-05-02T10:54:56.422Z,3.40
2019-05-02T10:57:27.913Z,3.50
2019-05-02T10:59:58.195Z,3.60
2019-05-02T11:02:52.499Z,3.40
2019-05-02T11:05:26.617Z,3.30
2019-05-02T11:08:06.173Z,3.40
2019-05-02T11:10:37.009Z,3.40
2019-05-02T11:13:16.333Z,3.40
2019-05-02T11:16:12.434Z,3.40
2019-05-02T11:19:14.710Z,3.50
2019-05-02T11:21:55.525Z,3.20
2019-05-02T11:24:22.469Z,3.20
2019-05-02T11:26:54.689Z,3.20
2019-05-02T11:29:29.017Z,3.40
2019-05-02T11:32:02.790Z,3.10
2019-05-02T11:34:34.471Z,3.00
2019-05-02T11:37:03.637Z,2.90
2019-05-02T11:39:44.196Z,3.00
2019-05-02T11:42:08.656Z,3.10
2019-05-02T11:44:41.822Z,3.20
2019-05-02T11:47:17.246Z,3.10
2019-05-02T11:49:52.160Z,3.00
2019-05-02T11:52:22.809Z,3.00
2019-05-02T11:54:58.102Z,2.90
2019-05-02T11:57:32.563Z,2.80
2019-05-02T12:00:04.934Z,2.90
2019-05-02T12:03:02.220Z,2.80
2019-05-02T12:05:42.042Z,2.60
2019-05-02T12:08:12.825Z,2.80
2019-05-02T12:10:44.528Z,2.60
2019-05-02T12:13:16.244Z,2.80
2019-05-02T12:15:48.016Z,2.60
2019-05-02T12:18:20.561Z,2.40
2019-05-02T12:20:52.149Z,2.50
2019-05-02T12:23:24.498Z,2.60
2019-05-02T12:25:56.845Z,2.50
2019-05-02T12:28:29.917Z,2.70
2019-05-02T12:31:03.318Z,2.60
2019-05-02T12:33:40.241Z,2.50
2019-05-02T12:36:13.001Z,2.60
2019-05-02T12:38:47.771Z,2.60
2019-05-02T12:41:21.953Z,2.50
2019-05-02T12:43:52.221Z,2.50
2019-05-02T12:46:23.189Z,2.30
2019-05-02T12:48:53.843Z,2.50
2019-05-02T12:51:22.991Z,2.40
2019-05-02T12:53:53.050Z,2.50
2019-05-02T12:56:29.229Z,2.30
2019-05-02T12:58:58.965Z,2.40
2019-05-02T13:01:32.950Z,2.40
2019-05-02T13:04:22.982Z,2.40
2019-05-02T13:06:56.218Z,2.60
2019-05-02T13:09:27.854Z,2.50
2019-05-02T13:12:10.550Z,2.50
2019-05-02T13:14:42.352Z,2.50
2019-05-02T13:17:16.553Z,2.50
2019-05-02T13:19:57.051Z,2.40
2019-05-02T13:22:43.477Z,2.40
2019-05-02T13:25:17.930Z,2.50
2019-05-02T13:27:52.105Z,2.50
2019-05-02T13:30:46.570Z,2.50
2019-05-02T13:33:34.424Z,2.50
2019-05-02T13:35:59.676Z,2.60
2019-05-02T13:38:29.030Z,2.60
2019-05-02T13:40:59.029Z,2.60
2019-05-02T13:43:34.134Z,2.60
2019-05-02T13:46:15.013Z,2.70
2019-05-02T13:48:45.178Z,2.80
2019-05-02T13:51:15.062Z,2.90
2019-05-02T13:54:02.391Z,2.80
2019-05-02T13:56:52.712Z,2.80
2019-05-02T13:59:24.225Z,2.80
2019-05-02T14:01:56.862Z,2.80
2019-05-02T14:04:28.097Z,2.80
2019-05-02T14:07:00.236Z,2.80
2019-05-02T14:09:40.727Z,2.90
2019-05-02T14:12:33.225Z,2.90
2019-05-02T14:15:11.044Z,2.80
2019-05-02T14:17:43.125Z,2.70
2019-05-02T14:20:18.217Z,2.80
2019-05-02T14:22:52.544Z,2.80
2019-05-02T14:25:23.162Z,3.00
2019-05-02T14:27:59.477Z,2.80
2019-05-02T14:30:37.048Z,2.70
2019-05-02T14:33:08.245Z,2.70
2019-05-02T14:35:42.593Z,2.70
2019-05-02T14:38:18.613Z,2.80
2019-05-02T14:40:57.624Z,2.80
2019-05-02T14:43:48.223Z,2.80
2019-05-02T14:46:21.985Z,2.80
2019-05-02T14:48:56.469Z,2.90
2019-05-02T14:51:28.283Z,2.90
2019-05-02T14:54:03.645Z,2.90
2019-05-02T14:56:45.902Z,3.00
2019-05-02T14:59:19.785Z,2.90
2019-05-02T15:01:57.995Z,2.90
2019-05-02T15:04:32.127Z,2.90
2019-05-02T15:07:06.688Z,2.90
2019-05-02T15:09:36.569Z,2.80
2019-05-02T15:12:14.115Z,2.80
2019-05-02T15:14:37.342Z,2.70
2019-05-02T15:17:06.495Z,2.70
2019-05-02T15:19:36.821Z,2.70
2019-05-02T15:22:05.767Z,2.70
2019-05-02T15:24:38.524Z,2.80
2019-05-02T15:27:13.613Z,2.80
2019-05-02T15:29:43.514Z,2.70
2019-05-02T15:32:32.433Z,2.70
2019-05-02T15:35:22.330Z,2.70
2019-05-02T15:37:51.876Z,2.70
2019-05-02T15:40:46.940Z,2.60
2019-05-02T15:43:02.867Z,2.60
2019-05-02T15:45:32.203Z,2.60
2019-05-02T15:48:05.498Z,2.70
2019-05-02T15:50:43.618Z,2.60
2019-05-02T15:53:22.315Z,2.60
2019-05-02T15:55:54.899Z,2.50
2019-05-02T15:58:27.917Z,2.50
2019-05-02T16:01:14.993Z,2.60
2019-05-02T16:03:52.497Z,2.60
2019-05-02T16:06:30.553Z,2.60
2019-05-02T16:08:56.631Z,2.60
2019-05-02T16:11:32.184Z,2.60
2019-05-02T16:14:02.880Z,2.60
2019-05-02T16:16:36.678Z,2.60
2019-05-02T16:19:07.926Z,2.50
2019-05-02T16:21:44.797Z,2.50
2019-05-02T16:24:22.989Z,2.50
2019-05-02T16:26:56.972Z,2.40
2019-05-02T16:29:28.857Z,2.30
2019-05-02T16:32:21.997Z,2.20
2019-05-02T16:34:55.108Z,2.20
2019-05-02T16:37:26.784Z,2.40
2019-05-02T16:39:57.796Z,2.40
2019-05-02T16:42:32.769Z,2.40
2019-05-02T16:45:04.663Z,2.40
2019-05-02T16:47:42.323Z,2.50
2019-05-02T16:50:13.381Z,2.40
2019-05-02T16:52:47.077Z,2.50
2019-05-02T16:55:20.986Z,2.40
2019-05-02T16:57:47.112Z,2.30
2019-05-02T17:00:22.529Z,2.30
2019-05-02T17:02:51.866Z,2.40
2019-05-02T17:05:22.103Z,2.30
2019-05-02T17:08:18.826Z,2.40
2019-05-02T17:10:56.723Z,2.20
2019-05-02T17:13:27.588Z,2.20
2019-05-02T17:15:59.444Z,2.40
2019-05-02T17:18:33.099Z,2.30
2019-05-02T17:21:04.721Z,2.20
2019-05-02T17:23:37.393Z,2.30
2019-05-02T17:26:12.259Z,2.40
2019-05-02T17:28:46.934Z,2.20
2019-05-02T17:31:19.308Z,2.20
2019-05-02T17:33:51.056Z,2.20
2019-05-02T17:36:28.493Z,2.20
2019-05-02T17:38:59.310Z,2.30
2019-05-02T17:41:31.787Z,2.20
2019-05-02T17:44:03.199Z,2.20
2019-05-02T17:46:33.234Z,2.10
2019-05-02T17:49:06.553Z,2.20
2019-05-02T17:52:05.046Z,2.10
2019-05-02T17:54:28.014Z,2.10
2019-05-02T17:57:02.170Z,2.20
2019-05-02T17:59:36.045Z,2.10
2019-05-02T18:02:12.465Z,2.10
2019-05-02T18:04:41.930Z,2.10
2019-05-02T18:07:18.049Z,2.10
2019-05-02T18:09:47.728Z,2.10
2019-05-02T18:12:18.670Z,2.10
2019-05-02T18:14:53.072Z,2.20
2019-05-02T18:17:27.577Z,2.10
2019-05-02T18:19:56.725Z,2.10
2019-05-02T18:22:28.054Z,2.10
2019-05-02T18:24:58.749Z,2.10
2019-05-02T18:27:32.989Z,2.10
2019-05-02T18:30:05.295Z,2.10
2019-05-02T18:32:38.476Z,2.10
2019-05-02T18:35:11.709Z,2.10
2019-05-02T18:37:46.722Z,2.10
2019-05-02T18:40:20.181Z,2.10
2019-05-02T18:42:56.522Z,2.10
2019-05-02T18:45:28.521Z,2.00
2019-05-02T18:48:04.549Z,2.10
2019-05-02T18:50:41.886Z,2.00
2019-05-02T18:53:13.780Z,2.00
2019-05-02T18:55:46.164Z,2.00
2019-05-02T18:58:18.322Z,1.90
2019-05-02T19:11:08.776Z,2.00
2019-05-02T19:13:32.699Z,1.90
2019-05-02T19:16:02.685Z,1.90
2019-05-02T19:18:32.792Z,2.00
2019-05-02T19:21:04.647Z,2.00
2019-05-02T19:23:37.678Z,2.00
2019-05-02T19:26:10.432Z,1.90
2019-05-02T19:28:57.884Z,2.10
2019-05-02T19:31:44.317Z,2.00
2019-05-02T19:34:16.730Z,2.10
2019-05-02T19:36:46.521Z,2.00
2019-05-02T19:39:18.162Z,1.90
2019-05-02T19:41:53.020Z,2.00
2019-05-02T19:44:29.128Z,1.90
2019-05-02T19:46:57.457Z,2.00
2019-05-02T19:49:32.470Z,1.90
2019-05-02T19:52:03.675Z,1.90
2019-05-02T19:54:39.456Z,1.90
2019-05-02T19:57:07.459Z,1.90
2019-05-02T19:59:38.715Z,1.80
2019-05-02T20:02:11.909Z,1.90
2019-05-02T20:04:44.357Z,1.80
2019-05-02T20:07:18.895Z,1.90
2019-05-02T20:09:52.349Z,1.90
2019-05-02T20:12:24.461Z,1.90
2019-05-02T20:14:56.680Z,1.80
2019-05-02T20:17:32.541Z,1.80
2019-05-02T20:20:09.713Z,1.80
2019-05-02T20:22:44.532Z,1.80
2019-05-02T20:25:17.007Z,1.80
2019-05-02T20:27:52.307Z,1.80
2019-05-02T20:30:23.658Z,1.80
2019-05-02T20:32:52.958Z,1.80
2019-05-02T20:35:27.702Z,1.80
2019-05-02T20:38:03.484Z,1.80
2019-05-02T20:40:37.457Z,1.90
2019-05-02T20:43:08.848Z,1.90
2019-05-02T20:45:39.856Z,1.80
2019-05-02T20:48:11.889Z,1.80
2019-05-02T20:50:42.582Z,1.80
2019-05-02T20:53:27.771Z,1.70
2019-05-02T20:55:52.207Z,1.70
2019-05-02T20:58:24.842Z,1.70
2019-05-02T21:01:05.529Z,1.70
2019-05-02T21:03:32.397Z,1.70
2019-05-02T21:06:13.790Z,1.70
2019-05-02T21:09:04.520Z,1.70
2019-05-02T21:11:34.742Z,1.60
2019-05-02T21:14:08.044Z,1.60
2019-05-02T21:16:42.490Z,1.60
2019-05-02T21:19:12.440Z,1.70
2019-05-02T21:21:46.732Z,1.70
2019-05-02T21:24:24.385Z,1.80
2019-05-02T21:26:54.422Z,1.80
2019-05-02T21:29:25.956Z,1.80
2019-05-02T21:31:57.612Z,1.70
2019-05-02T21:34:28.277Z,1.70
2019-05-02T21:37:02.535Z,1.70
2019-05-02T21:39:42.469Z,1.70
2019-05-02T21:42:12.593Z,1.70
2019-05-02T21:44:46.888Z,1.70
2019-05-02T21:47:18.068Z,1.70
2019-05-02T21:49:55.998Z,1.70
2019-05-02T21:52:54.053Z,1.70
2019-05-02T21:55:32.340Z,1.70
2019-05-02T21:58:02.753Z,1.80
2019-05-02T22:00:52.762Z,1.80
2019-05-02T22:03:25.205Z,1.80
2019-05-02T22:05:55.477Z,1.70
2019-05-02T22:08:28.645Z,1.70
2019-05-02T22:11:05.849Z,1.60
2019-05-02T22:13:39.167Z,1.60
2019-05-02T22:16:12.771Z,1.60
2019-05-02T22:18:44.718Z,1.60
2019-05-02T22:21:19.299Z,1.60
2019-05-02T22:23:52.031Z,1.60
2019-05-02T22:26:26.349Z,1.60
2019-05-02T22:29:01.769Z,1.60
2019-05-02T22:31:35.193Z,1.60
2019-05-02T22:34:13.641Z,1.60
2019-05-02T22:36:44.408Z,1.50
2019-05-02T22:39:34.389Z,1.60
2019-05-02T22:42:04.818Z,1.60
2019-05-02T22:44:36.606Z,1.70
2019-05-02T22:47:08.403Z,1.60
2019-05-02T22:49:38.999Z,1.60
2019-05-02T22:52:08.942Z,1.60
2019-05-02T22:54:41.646Z,1.60
2019-05-02T22:57:14.262Z,1.60
2019-05-02T22:59:47.305Z,1.70
2019-05-02T23:02:18.466Z,1.60
2019-05-02T23:04:47.836Z,1.60
2019-05-02T23:07:18.217Z,1.60
2019-05-02T23:09:52.498Z,1.70
2019-05-02T23:12:25.036Z,1.70
2019-05-02T23:14:53.374Z,1.70
2019-05-02T23:17:24.073Z,1.70
2019-05-02T23:19:55.808Z,1.80
2019-05-02T23:22:28.117Z,1.90
2019-05-02T23:25:11.610Z,1.80
2019-05-02T23:28:05.370Z,1.80
2019-05-02T23:30:39.508Z,1.80
2019-05-02T23:33:12.976Z,1.80
2019-05-02T23:35:43.185Z,1.80
2019-05-02T23:38:14.417Z,1.80
2019-05-02T23:40:44.333Z,1.80
2019-05-02T23:43:14.634Z,1.80
2019-05-02T23:45:47.989Z,1.80
2019-05-02T23:48:22.103Z,1.80
2019-05-02T23:50:56.095Z,1.80
2019-05-02T23:53:27.324Z,1.90
2019-05-02T23:55:59.638Z,1.90
2019-05-02T23:58:31.999Z,1.90
